Tilton, Illinois
Current Conditions -  °F | °C
As of 2:15 PM on Monday 24 Nov 2014 (Local Time) from KDNV Reporting Station
Overcast Overcast  
Wind Chill: 19°   Ceiling: 2200
Heat Index: 33°   Visibility: 10mi
Dew Point: 28°   Wind: 29mph
Humidity: 80%   Direction: 250°WSW
Pressure: 29.6"   Gusts: 41mph
Location:  40.1°N, 87.65°W
Report Text: KDNV 242015Z AUTO 25025G36KT 10SM OVC022 01/M02 A2960 RMK AO2 T00061025
Loading
Personal Weather Stations






























Interactive Weather Map New forecast layout! Learn more

10-Day Weather Forecast

Advertisements
Track Severe Weather on mobile